sensor_id;sensor_type;location;lat;lon;timestamp;P1;durP1;ratioP1;P2;durP2;ratioP2
65691;SDS011;52411;52.716;6.696;2023-08-21T00:02:11;5.35;;;3.95;;
65691;SDS011;52411;52.716;6.696;2023-08-21T00:04:37;7.57;;;4.15;;
65691;SDS011;52411;52.716;6.696;2023-08-21T00:07:02;9.32;;;4.57;;
65691;SDS011;52411;52.716;6.696;2023-08-21T00:14:39;8.65;;;3.75;;
65691;SDS011;52411;52.716;6.696;2023-08-21T00:17:04;7.53;;;4.22;;
65691;SDS011;52411;52.716;6.696;2023-08-21T00:19:30;6.03;;;3.35;;
65691;SDS011;52411;52.716;6.696;2023-08-21T00:29:43;8.13;;;4.75;;
65691;SDS011;52411;52.716;6.696;2023-08-21T00:32:08;10.23;;;4.80;;
65691;SDS011;52411;52.716;6.696;2023-08-21T00:34:34;6.72;;;4.30;;
65691;SDS011;52411;52.716;6.696;2023-08-21T00:37:00;8.40;;;4.75;;
65691;SDS011;52411;52.716;6.696;2023-08-21T00:39:25;7.63;;;4.45;;
65691;SDS011;52411;52.716;6.696;2023-08-21T00:47:11;5.82;;;4.25;;
65691;SDS011;52411;52.716;6.696;2023-08-21T00:49:37;6.03;;;4.15;;
65691;SDS011;52411;52.716;6.696;2023-08-21T00:52:04;8.13;;;3.35;;
65691;SDS011;52411;52.716;6.696;2023-08-21T00:54:33;7.55;;;4.80;;
65691;SDS011;52411;52.716;6.696;2023-08-21T00:56:59;8.35;;;4.57;;
65691;SDS011;52411;52.716;6.696;2023-08-21T01:04:36;10.10;;;4.78;;
65691;SDS011;52411;52.716;6.696;2023-08-21T01:07:02;10.50;;;4.60;;
65691;SDS011;52411;52.716;6.696;2023-08-21T01:12:35;6.07;;;2.80;;
65691;SDS011;52411;52.716;6.696;2023-08-21T01:15:11;12.75;;;4.90;;
65691;SDS011;52411;52.716;6.696;2023-08-21T01:17:38;8.73;;;4.45;;
65691;SDS011;52411;52.716;6.696;2023-08-21T01:20:06;6.13;;;3.67;;
65691;SDS011;52411;52.716;6.696;2023-08-21T01:22:36;6.30;;;3.05;;
65691;SDS011;52411;52.716;6.696;2023-08-21T01:25:03;10.10;;;3.60;;
65691;SDS011;52411;52.716;6.696;2023-08-21T01:27:30;4.75;;;3.10;;
65691;SDS011;52411;52.716;6.696;2023-08-21T01:29:56;7.72;;;3.13;;
65691;SDS011;52411;52.716;6.696;2023-08-21T01:35:01;4.65;;;2.65;;
65691;SDS011;52411;52.716;6.696;2023-08-21T01:37:29;5.47;;;2.88;;
65691;SDS011;52411;52.716;6.696;2023-08-21T01:39:57;5.30;;;2.80;;
65691;SDS011;52411;52.716;6.696;2023-08-21T01:42:23;6.40;;;3.67;;
65691;SDS011;52411;52.716;6.696;2023-08-21T01:44:49;5.07;;;3.22;;
65691;SDS011;52411;52.716;6.696;2023-08-21T01:47:15;3.90;;;3.10;;
65691;SDS011;52411;52.716;6.696;2023-08-21T01:49:40;6.50;;;2.38;;
65691;SDS011;52411;52.716;6.696;2023-08-21T01:52:06;6.72;;;2.70;;
65691;SDS011;52411;52.716;6.696;2023-08-21T01:54:31;4.63;;;2.38;;
65691;SDS011;52411;52.716;6.696;2023-08-21T01:56:57;4.32;;;2.50;;
65691;SDS011;52411;52.716;6.696;2023-08-21T01:59:23;5.88;;;2.63;;
65691;SDS011;52411;52.716;6.696;2023-08-21T02:01:49;16.73;;;3.42;;
65691;SDS011;52411;52.716;6.696;2023-08-21T02:04:15;5.10;;;2.90;;
65691;SDS011;52411;52.716;6.696;2023-08-21T02:06:40;3.17;;;2.50;;
65691;SDS011;52411;52.716;6.696;2023-08-21T02:09:06;14.35;;;2.97;;
65691;SDS011;52411;52.716;6.696;2023-08-21T02:11:32;5.28;;;3.80;;
65691;SDS011;52411;52.716;6.696;2023-08-21T02:13:57;5.80;;;2.78;;
65691;SDS011;52411;52.716;6.696;2023-08-21T02:16:23;8.90;;;4.97;;
65691;SDS011;52411;52.716;6.696;2023-08-21T02:18:49;6.72;;;3.33;;
65691;SDS011;52411;52.716;6.696;2023-08-21T02:21:14;5.50;;;3.90;;
65691;SDS011;52411;52.716;6.696;2023-08-21T02:23:40;8.50;;;3.67;;
65691;SDS011;52411;52.716;6.696;2023-08-21T02:26:05;5.78;;;3.05;;
65691;SDS011;52411;52.716;6.696;2023-08-21T02:28:31;5.93;;;2.50;;
65691;SDS011;52411;52.716;6.696;2023-08-21T02:30:57;4.72;;;2.67;;
65691;SDS011;52411;52.716;6.696;2023-08-21T02:33:22;5.45;;;2.75;;
65691;SDS011;52411;52.716;6.696;2023-08-21T02:35:48;5.43;;;3.22;;
65691;SDS011;52411;52.716;6.696;2023-08-21T02:38:13;7.78;;;3.30;;
65691;SDS011;52411;52.716;6.696;2023-08-21T02:40:39;6.45;;;3.45;;
65691;SDS011;52411;52.716;6.696;2023-08-21T02:43:05;33.35;;;3.45;;
65691;SDS011;52411;52.716;6.696;2023-08-21T02:45:30;4.82;;;2.85;;
65691;SDS011;52411;52.716;6.696;2023-08-21T02:47:56;6.50;;;3.20;;
65691;SDS011;52411;52.716;6.696;2023-08-21T02:50:22;10.52;;;4.63;;
65691;SDS011;52411;52.716;6.696;2023-08-21T02:52:47;7.88;;;4.40;;
65691;SDS011;52411;52.716;6.696;2023-08-21T02:55:13;10.95;;;5.63;;
65691;SDS011;52411;52.716;6.696;2023-08-21T02:57:39;7.22;;;4.82;;
65691;SDS011;52411;52.716;6.696;2023-08-21T03:00:05;10.02;;;5.00;;
65691;SDS011;52411;52.716;6.696;2023-08-21T03:02:32;7.03;;;4.13;;
65691;SDS011;52411;52.716;6.696;2023-08-21T03:04:58;6.30;;;3.75;;
65691;SDS011;52411;52.716;6.696;2023-08-21T03:07:24;4.28;;;2.70;;
65691;SDS011;52411;52.716;6.696;2023-08-21T03:09:50;4.97;;;2.88;;
65691;SDS011;52411;52.716;6.696;2023-08-21T03:12:15;2.40;;;2.10;;
65691;SDS011;52411;52.716;6.696;2023-08-21T03:14:41;4.78;;;2.40;;
65691;SDS011;52411;52.716;6.696;2023-08-21T03:17:07;4.88;;;2.90;;
65691;SDS011;52411;52.716;6.696;2023-08-21T03:19:32;4.78;;;3.42;;
65691;SDS011;52411;52.716;6.696;2023-08-21T03:21:58;5.95;;;3.60;;
65691;SDS011;52411;52.716;6.696;2023-08-21T03:24:24;4.88;;;2.90;;
65691;SDS011;52411;52.716;6.696;2023-08-21T03:26:49;3.97;;;2.97;;
65691;SDS011;52411;52.716;6.696;2023-08-21T03:29:15;5.75;;;4.18;;
65691;SDS011;52411;52.716;6.696;2023-08-21T03:31:41;5.60;;;4.10;;
65691;SDS011;52411;52.716;6.696;2023-08-21T03:34:06;5.97;;;3.65;;
65691;SDS011;52411;52.716;6.696;2023-08-21T03:36:33;7.30;;;3.50;;
65691;SDS011;52411;52.716;6.696;2023-08-21T03:38:59;7.13;;;4.20;;
65691;SDS011;52411;52.716;6.696;2023-08-21T03:41:26;6.43;;;3.60;;
65691;SDS011;52411;52.716;6.696;2023-08-21T03:43:52;8.65;;;4.18;;
65691;SDS011;52411;52.716;6.696;2023-08-21T03:46:18;5.57;;;3.45;;
65691;SDS011;52411;52.716;6.696;2023-08-21T03:48:44;7.07;;;3.47;;
65691;SDS011;52411;52.716;6.696;2023-08-21T03:51:09;3.78;;;2.97;;
65691;SDS011;52411;52.716;6.696;2023-08-21T03:53:35;4.32;;;2.63;;
65691;SDS011;52411;52.716;6.696;2023-08-21T03:56:00;4.82;;;3.30;;
65691;SDS011;52411;52.716;6.696;2023-08-21T03:58:26;4.32;;;2.80;;
65691;SDS011;52411;52.716;6.696;2023-08-21T04:00:52;3.72;;;2.30;;
65691;SDS011;52411;52.716;6.696;2023-08-21T04:03:18;5.95;;;2.53;;
65691;SDS011;52411;52.716;6.696;2023-08-21T04:05:44;8.10;;;3.88;;
65691;SDS011;52411;52.716;6.696;2023-08-21T04:08:09;5.38;;;3.10;;
65691;SDS011;52411;52.716;6.696;2023-08-21T04:10:35;4.38;;;2.88;;
65691;SDS011;52411;52.716;6.696;2023-08-21T04:13:01;4.78;;;2.22;;
65691;SDS011;52411;52.716;6.696;2023-08-21T04:15:26;34.67;;;4.45;;
65691;SDS011;52411;52.716;6.696;2023-08-21T04:17:52;4.75;;;2.30;;
65691;SDS011;52411;52.716;6.696;2023-08-21T04:20:19;9.57;;;3.55;;
65691;SDS011;52411;52.716;6.696;2023-08-21T04:22:47;9.00;;;3.28;;
65691;SDS011;52411;52.716;6.696;2023-08-21T04:25:13;6.45;;;3.20;;
65691;SDS011;52411;52.716;6.696;2023-08-21T04:27:38;4.10;;;3.30;;
65691;SDS011;52411;52.716;6.696;2023-08-21T04:30:04;3.92;;;2.63;;
65691;SDS011;52411;52.716;6.696;2023-08-21T04:32:30;2.47;;;1.73;;
65691;SDS011;52411;52.716;6.696;2023-08-21T04:34:56;7.28;;;1.67;;
65691;SDS011;52411;52.716;6.696;2023-08-21T04:37:22;1.52;;;1.42;;
65691;SDS011;52411;52.716;6.696;2023-08-21T04:39:54;1.85;;;1.70;;
65691;SDS011;52411;52.716;6.696;2023-08-21T04:42:20;4.38;;;2.30;;
65691;SDS011;52411;52.716;6.696;2023-08-21T04:44:46;5.10;;;2.80;;
65691;SDS011;52411;52.716;6.696;2023-08-21T04:47:20;7.03;;;2.63;;
65691;SDS011;52411;52.716;6.696;2023-08-21T04:49:51;16.58;;;2.22;;
65691;SDS011;52411;52.716;6.696;2023-08-21T04:52:17;3.65;;;1.75;;
65691;SDS011;52411;52.716;6.696;2023-08-21T04:54:43;2.78;;;1.88;;
65691;SDS011;52411;52.716;6.696;2023-08-21T04:57:09;4.68;;;2.60;;
65691;SDS011;52411;52.716;6.696;2023-08-21T04:59:35;6.75;;;2.70;;
65691;SDS011;52411;52.716;6.696;2023-08-21T05:02:01;6.15;;;3.70;;
65691;SDS011;52411;52.716;6.696;2023-08-21T05:04:27;5.97;;;2.60;;
65691;SDS011;52411;52.716;6.696;2023-08-21T05:06:52;3.95;;;2.60;;
65691;SDS011;52411;52.716;6.696;2023-08-21T05:09:18;6.07;;;2.80;;
65691;SDS011;52411;52.716;6.696;2023-08-21T05:11:44;9.65;;;2.70;;
65691;SDS011;52411;52.716;6.696;2023-08-21T05:14:09;7.60;;;2.80;;
65691;SDS011;52411;52.716;6.696;2023-08-21T05:16:35;5.00;;;3.03;;
65691;SDS011;52411;52.716;6.696;2023-08-21T05:19:00;6.32;;;2.90;;
65691;SDS011;52411;52.716;6.696;2023-08-21T05:21:26;7.82;;;2.70;;
65691;SDS011;52411;52.716;6.696;2023-08-21T05:23:52;5.30;;;2.65;;
65691;SDS011;52411;52.716;6.696;2023-08-21T05:26:18;4.15;;;2.58;;
65691;SDS011;52411;52.716;6.696;2023-08-21T05:28:45;3.42;;;2.60;;
65691;SDS011;52411;52.716;6.696;2023-08-21T05:31:10;4.35;;;3.03;;
65691;SDS011;52411;52.716;6.696;2023-08-21T05:33:36;7.20;;;3.83;;
65691;SDS011;52411;52.716;6.696;2023-08-21T05:36:02;7.07;;;3.92;;
65691;SDS011;52411;52.716;6.696;2023-08-21T05:38:28;6.68;;;3.72;;
65691;SDS011;52411;52.716;6.696;2023-08-21T05:40:54;7.05;;;4.35;;
65691;SDS011;52411;52.716;6.696;2023-08-21T05:43:26;8.32;;;4.80;;
65691;SDS011;52411;52.716;6.696;2023-08-21T05:45:51;8.90;;;4.32;;
65691;SDS011;52411;52.716;6.696;2023-08-21T05:48:20;5.95;;;4.25;;
65691;SDS011;52411;52.716;6.696;2023-08-21T05:50:50;9.73;;;5.05;;
65691;SDS011;52411;52.716;6.696;2023-08-21T05:53:16;6.75;;;4.53;;
65691;SDS011;52411;52.716;6.696;2023-08-21T05:55:42;7.82;;;4.90;;
65691;SDS011;52411;52.716;6.696;2023-08-21T05:58:08;7.75;;;4.50;;
65691;SDS011;52411;52.716;6.696;2023-08-21T06:00:34;7.40;;;4.70;;
65691;SDS011;52411;52.716;6.696;2023-08-21T06:03:00;9.70;;;4.30;;
65691;SDS011;52411;52.716;6.696;2023-08-21T06:05:26;11.18;;;5.10;;
65691;SDS011;52411;52.716;6.696;2023-08-21T06:07:51;9.35;;;5.32;;
65691;SDS011;52411;52.716;6.696;2023-08-21T06:10:17;10.40;;;5.88;;
65691;SDS011;52411;52.716;6.696;2023-08-21T06:12:43;11.07;;;6.15;;
65691;SDS011;52411;52.716;6.696;2023-08-21T06:15:09;11.32;;;6.32;;
65691;SDS011;52411;52.716;6.696;2023-08-21T06:17:35;11.50;;;6.70;;
65691;SDS011;52411;52.716;6.696;2023-08-21T06:20:01;10.13;;;6.32;;
65691;SDS011;52411;52.716;6.696;2023-08-21T06:22:30;13.05;;;6.90;;
65691;SDS011;52411;52.716;6.696;2023-08-21T06:24:56;11.75;;;6.65;;
65691;SDS011;52411;52.716;6.696;2023-08-21T06:27:22;15.38;;;7.22;;
65691;SDS011;52411;52.716;6.696;2023-08-21T06:29:47;14.35;;;7.10;;
65691;SDS011;52411;52.716;6.696;2023-08-21T06:32:13;13.63;;;6.55;;
65691;SDS011;52411;52.716;6.696;2023-08-21T06:34:38;14.70;;;7.72;;
65691;SDS011;52411;52.716;6.696;2023-08-21T06:37:04;10.55;;;7.35;;
65691;SDS011;52411;52.716;6.696;2023-08-21T06:39:30;12.90;;;7.35;;
65691;SDS011;52411;52.716;6.696;2023-08-21T06:41:56;14.25;;;7.65;;
65691;SDS011;52411;52.716;6.696;2023-08-21T06:44:22;16.13;;;8.32;;
65691;SDS011;52411;52.716;6.696;2023-08-21T06:46:48;20.15;;;8.10;;
65691;SDS011;52411;52.716;6.696;2023-08-21T06:49:13;20.15;;;8.23;;
65691;SDS011;52411;52.716;6.696;2023-08-21T06:51:39;15.77;;;7.47;;
65691;SDS011;52411;52.716;6.696;2023-08-21T06:54:04;14.65;;;7.20;;
65691;SDS011;52411;52.716;6.696;2023-08-21T06:56:30;16.77;;;8.00;;
65691;SDS011;52411;52.716;6.696;2023-08-21T06:58:56;12.63;;;7.10;;
65691;SDS011;52411;52.716;6.696;2023-08-21T07:01:22;15.35;;;7.30;;
65691;SDS011;52411;52.716;6.696;2023-08-21T07:03:47;13.88;;;6.88;;
65691;SDS011;52411;52.716;6.696;2023-08-21T07:06:13;12.23;;;7.63;;
65691;SDS011;52411;52.716;6.696;2023-08-21T07:08:39;13.55;;;7.03;;
65691;SDS011;52411;52.716;6.696;2023-08-21T07:11:05;14.52;;;7.63;;
65691;SDS011;52411;52.716;6.696;2023-08-21T07:13:33;11.98;;;7.28;;
65691;SDS011;52411;52.716;6.696;2023-08-21T07:15:59;14.05;;;6.60;;
65691;SDS011;52411;52.716;6.696;2023-08-21T07:18:27;13.70;;;7.05;;
65691;SDS011;52411;52.716;6.696;2023-08-21T07:20:53;12.60;;;6.80;;
65691;SDS011;52411;52.716;6.696;2023-08-21T07:23:19;11.10;;;6.80;;
65691;SDS011;52411;52.716;6.696;2023-08-21T07:25:45;14.52;;;6.93;;
65691;SDS011;52411;52.716;6.696;2023-08-21T07:28:10;14.52;;;7.43;;
65691;SDS011;52411;52.716;6.696;2023-08-21T07:30:39;11.07;;;6.55;;
65691;SDS011;52411;52.716;6.696;2023-08-21T07:33:04;16.13;;;7.10;;
65691;SDS011;52411;52.716;6.696;2023-08-21T07:35:30;12.75;;;6.60;;
65691;SDS011;52411;52.716;6.696;2023-08-21T07:37:57;13.90;;;6.68;;
65691;SDS011;52411;52.716;6.696;2023-08-21T07:40:23;11.38;;;5.80;;
65691;SDS011;52411;52.716;6.696;2023-08-21T07:42:49;9.00;;;6.07;;
65691;SDS011;52411;52.716;6.696;2023-08-21T07:45:14;16.33;;;5.47;;
65691;SDS011;52411;52.716;6.696;2023-08-21T07:47:40;9.82;;;6.03;;
65691;SDS011;52411;52.716;6.696;2023-08-21T07:50:06;11.30;;;5.88;;
65691;SDS011;52411;52.716;6.696;2023-08-21T07:52:32;10.52;;;5.55;;
65691;SDS011;52411;52.716;6.696;2023-08-21T07:54:58;11.85;;;4.63;;
65691;SDS011;52411;52.716;6.696;2023-08-21T07:57:26;10.25;;;4.10;;
65691;SDS011;52411;52.716;6.696;2023-08-21T07:59:52;10.50;;;4.20;;
65691;SDS011;52411;52.716;6.696;2023-08-21T08:02:17;10.00;;;4.82;;
65691;SDS011;52411;52.716;6.696;2023-08-21T08:04:43;10.35;;;4.43;;
65691;SDS011;52411;52.716;6.696;2023-08-21T08:07:08;9.65;;;5.00;;
65691;SDS011;52411;52.716;6.696;2023-08-21T08:09:34;10.90;;;4.88;;
65691;SDS011;52411;52.716;6.696;2023-08-21T08:12:01;9.57;;;5.72;;
65691;SDS011;52411;52.716;6.696;2023-08-21T08:14:26;8.30;;;5.35;;
65691;SDS011;52411;52.716;6.696;2023-08-21T08:16:52;8.30;;;4.65;;
65691;SDS011;52411;52.716;6.696;2023-08-21T08:19:17;9.48;;;5.00;;
65691;SDS011;52411;52.716;6.696;2023-08-21T08:21:43;12.77;;;4.80;;
65691;SDS011;52411;52.716;6.696;2023-08-21T08:24:09;10.88;;;4.50;;
65691;SDS011;52411;52.716;6.696;2023-08-21T08:26:34;6.80;;;3.28;;
65691;SDS011;52411;52.716;6.696;2023-08-21T08:29:00;6.80;;;3.30;;
65691;SDS011;52411;52.716;6.696;2023-08-21T08:31:26;7.72;;;3.40;;
65691;SDS011;52411;52.716;6.696;2023-08-21T08:33:52;9.88;;;4.68;;
65691;SDS011;52411;52.716;6.696;2023-08-21T08:36:19;7.30;;;2.75;;
65691;SDS011;52411;52.716;6.696;2023-08-21T08:38:45;6.97;;;2.92;;
65691;SDS011;52411;52.716;6.696;2023-08-21T08:41:11;8.07;;;3.10;;
65691;SDS011;52411;52.716;6.696;2023-08-21T08:43:50;7.53;;;3.38;;
65691;SDS011;52411;52.716;6.696;2023-08-21T08:46:16;7.63;;;3.22;;
65691;SDS011;52411;52.716;6.696;2023-08-21T08:48:43;9.63;;;3.30;;
65691;SDS011;52411;52.716;6.696;2023-08-21T08:51:08;10.50;;;3.42;;
65691;SDS011;52411;52.716;6.696;2023-08-21T08:53:34;8.95;;;3.08;;
65691;SDS011;52411;52.716;6.696;2023-08-21T08:56:01;5.93;;;2.80;;
65691;SDS011;52411;52.716;6.696;2023-08-21T08:58:28;11.43;;;2.78;;
65691;SDS011;52411;52.716;6.696;2023-08-21T09:00:54;6.55;;;2.90;;
65691;SDS011;52411;52.716;6.696;2023-08-21T09:03:20;7.93;;;2.95;;
65691;SDS011;52411;52.716;6.696;2023-08-21T09:05:46;5.43;;;2.47;;
65691;SDS011;52411;52.716;6.696;2023-08-21T09:08:13;8.10;;;3.03;;
65691;SDS011;52411;52.716;6.696;2023-08-21T09:10:40;6.15;;;2.58;;
65691;SDS011;52411;52.716;6.696;2023-08-21T09:13:17;8.45;;;2.80;;
65691;SDS011;52411;52.716;6.696;2023-08-21T09:15:44;6.43;;;2.72;;
65691;SDS011;52411;52.716;6.696;2023-08-21T09:18:12;6.28;;;2.50;;
65691;SDS011;52411;52.716;6.696;2023-08-21T09:20:39;7.20;;;2.78;;
65691;SDS011;52411;52.716;6.696;2023-08-21T09:23:06;7.85;;;2.60;;
65691;SDS011;52411;52.716;6.696;2023-08-21T09:25:35;5.82;;;2.70;;
65691;SDS011;52411;52.716;6.696;2023-08-21T09:30:43;6.68;;;3.13;;
65691;SDS011;52411;52.716;6.696;2023-08-21T09:33:12;7.25;;;3.28;;
65691;SDS011;52411;52.716;6.696;2023-08-21T09:35:38;7.10;;;3.20;;
65691;SDS011;52411;52.716;6.696;2023-08-21T09:38:07;5.90;;;2.40;;
65691;SDS011;52411;52.716;6.696;2023-08-21T09:40:33;8.07;;;3.15;;
65691;SDS011;52411;52.716;6.696;2023-08-21T09:42:59;6.32;;;3.00;;
65691;SDS011;52411;52.716;6.696;2023-08-21T09:45:25;6.65;;;2.88;;
65691;SDS011;52411;52.716;6.696;2023-08-21T09:47:53;5.43;;;2.00;;
65691;SDS011;52411;52.716;6.696;2023-08-21T09:50:19;5.88;;;2.45;;
65691;SDS011;52411;52.716;6.696;2023-08-21T09:52:47;6.72;;;1.83;;
65691;SDS011;52411;52.716;6.696;2023-08-21T09:55:14;6.60;;;1.85;;
65691;SDS011;52411;52.716;6.696;2023-08-21T09:57:40;3.35;;;1.70;;
65691;SDS011;52411;52.716;6.696;2023-08-21T10:00:07;4.15;;;1.70;;
65691;SDS011;52411;52.716;6.696;2023-08-21T10:02:41;4.32;;;1.60;;
65691;SDS011;52411;52.716;6.696;2023-08-21T10:05:10;6.68;;;1.75;;
65691;SDS011;52411;52.716;6.696;2023-08-21T10:07:37;4.18;;;1.45;;
65691;SDS011;52411;52.716;6.696;2023-08-21T10:10:04;4.55;;;1.77;;
65691;SDS011;52411;52.716;6.696;2023-08-21T10:12:30;5.38;;;1.98;;
65691;SDS011;52411;52.716;6.696;2023-08-21T10:14:56;5.65;;;1.90;;
65691;SDS011;52411;52.716;6.696;2023-08-21T10:17:22;5.47;;;1.90;;
65691;SDS011;52411;52.716;6.696;2023-08-21T10:19:51;6.57;;;2.03;;
65691;SDS011;52411;52.716;6.696;2023-08-21T10:25:19;3.75;;;1.60;;
65691;SDS011;52411;52.716;6.696;2023-08-21T10:28:00;5.93;;;2.10;;
65691;SDS011;52411;52.716;6.696;2023-08-21T10:30:28;7.70;;;1.92;;
65691;SDS011;52411;52.716;6.696;2023-08-21T10:32:55;6.50;;;1.77;;
65691;SDS011;52411;52.716;6.696;2023-08-21T10:35:31;2.42;;;1.60;;
65691;SDS011;52411;52.716;6.696;2023-08-21T10:40:34;4.97;;;1.95;;
65691;SDS011;52411;52.716;6.696;2023-08-21T10:43:00;7.78;;;1.90;;
65691;SDS011;52411;52.716;6.696;2023-08-21T10:45:28;5.32;;;1.83;;
65691;SDS011;52411;52.716;6.696;2023-08-21T10:48:00;4.90;;;1.85;;
65691;SDS011;52411;52.716;6.696;2023-08-21T10:50:26;4.65;;;1.85;;
65691;SDS011;52411;52.716;6.696;2023-08-21T10:52:53;3.42;;;1.73;;
65691;SDS011;52411;52.716;6.696;2023-08-21T10:55:19;3.88;;;1.77;;
65691;SDS011;52411;52.716;6.696;2023-08-21T10:57:49;4.40;;;1.88;;
65691;SDS011;52411;52.716;6.696;2023-08-21T11:00:15;4.53;;;1.83;;
65691;SDS011;52411;52.716;6.696;2023-08-21T11:02:44;3.63;;;1.65;;
65691;SDS011;52411;52.716;6.696;2023-08-21T11:05:11;4.47;;;2.08;;
65691;SDS011;52411;52.716;6.696;2023-08-21T11:07:39;4.13;;;1.80;;
65691;SDS011;52411;52.716;6.696;2023-08-21T11:10:06;4.95;;;1.73;;
65691;SDS011;52411;52.716;6.696;2023-08-21T11:12:33;4.43;;;2.13;;
65691;SDS011;52411;52.716;6.696;2023-08-21T11:14:59;5.45;;;1.90;;
65691;SDS011;52411;52.716;6.696;2023-08-21T11:17:24;5.80;;;1.85;;
65691;SDS011;52411;52.716;6.696;2023-08-21T11:19:50;5.15;;;2.00;;
65691;SDS011;52411;52.716;6.696;2023-08-21T11:22:17;5.68;;;2.30;;
65691;SDS011;52411;52.716;6.696;2023-08-21T11:27:11;4.30;;;1.80;;
65691;SDS011;52411;52.716;6.696;2023-08-21T11:29:39;4.38;;;1.70;;
65691;SDS011;52411;52.716;6.696;2023-08-21T11:32:19;3.10;;;1.50;;
65691;SDS011;52411;52.716;6.696;2023-08-21T11:37:19;4.57;;;1.80;;
65691;SDS011;52411;52.716;6.696;2023-08-21T11:39:49;5.13;;;1.88;;
65691;SDS011;52411;52.716;6.696;2023-08-21T11:42:20;4.47;;;2.10;;
65691;SDS011;52411;52.716;6.696;2023-08-21T11:44:50;5.95;;;2.17;;
65691;SDS011;52411;52.716;6.696;2023-08-21T11:47:19;4.70;;;1.90;;
65691;SDS011;52411;52.716;6.696;2023-08-21T11:49:46;6.28;;;1.85;;
65691;SDS011;52411;52.716;6.696;2023-08-21T11:52:14;2.90;;;1.60;;
65691;SDS011;52411;52.716;6.696;2023-08-21T11:54:43;5.63;;;1.70;;
65691;SDS011;52411;52.716;6.696;2023-08-21T11:57:15;4.32;;;1.70;;
65691;SDS011;52411;52.716;6.696;2023-08-21T11:59:42;6.45;;;2.00;;
65691;SDS011;52411;52.716;6.696;2023-08-21T12:02:09;4.18;;;1.90;;
65691;SDS011;52411;52.716;6.696;2023-08-21T12:04:34;3.50;;;1.70;;
65691;SDS011;52411;52.716;6.696;2023-08-21T12:07:00;3.65;;;1.70;;
65691;SDS011;52411;52.716;6.696;2023-08-21T12:09:26;7.45;;;2.00;;
65691;SDS011;52411;52.716;6.696;2023-08-21T12:11:52;3.83;;;1.95;;
65691;SDS011;52411;52.716;6.696;2023-08-21T12:14:17;4.45;;;2.17;;
65691;SDS011;52411;52.716;6.696;2023-08-21T12:16:43;4.55;;;1.95;;
65691;SDS011;52411;52.716;6.696;2023-08-21T12:19:09;4.70;;;1.95;;
65691;SDS011;52411;52.716;6.696;2023-08-21T12:21:36;3.08;;;1.75;;
65691;SDS011;52411;52.716;6.696;2023-08-21T12:24:03;5.05;;;1.90;;
65691;SDS011;52411;52.716;6.696;2023-08-21T12:26:30;5.82;;;1.98;;
65691;SDS011;52411;52.716;6.696;2023-08-21T12:28:56;6.63;;;2.00;;
65691;SDS011;52411;52.716;6.696;2023-08-21T12:31:21;3.42;;;1.75;;
65691;SDS011;52411;52.716;6.696;2023-08-21T12:33:47;3.15;;;1.77;;
65691;SDS011;52411;52.716;6.696;2023-08-21T12:36:12;5.25;;;1.60;;
65691;SDS011;52411;52.716;6.696;2023-08-21T12:38:38;5.40;;;1.83;;
65691;SDS011;52411;52.716;6.696;2023-08-21T12:41:03;4.53;;;1.38;;
65691;SDS011;52411;52.716;6.696;2023-08-21T12:43:30;7.05;;;1.88;;
65691;SDS011;52411;52.716;6.696;2023-08-21T12:45:56;4.78;;;1.58;;
65691;SDS011;52411;52.716;6.696;2023-08-21T12:48:22;5.07;;;1.50;;
65691;SDS011;52411;52.716;6.696;2023-08-21T12:50:47;5.35;;;2.15;;
65691;SDS011;52411;52.716;6.696;2023-08-21T12:53:13;3.50;;;1.60;;
65691;SDS011;52411;52.716;6.696;2023-08-21T12:55:38;3.25;;;1.60;;
65691;SDS011;52411;52.716;6.696;2023-08-21T12:58:04;3.10;;;1.60;;
65691;SDS011;52411;52.716;6.696;2023-08-21T13:00:30;4.07;;;1.42;;
65691;SDS011;52411;52.716;6.696;2023-08-21T13:02:57;3.83;;;1.58;;
65691;SDS011;52411;52.716;6.696;2023-08-21T13:05:23;4.55;;;1.50;;
65691;SDS011;52411;52.716;6.696;2023-08-21T13:07:49;3.42;;;1.45;;
65691;SDS011;52411;52.716;6.696;2023-08-21T13:10:14;5.35;;;1.50;;
65691;SDS011;52411;52.716;6.696;2023-08-21T13:12:40;3.75;;;1.92;;
65691;SDS011;52411;52.716;6.696;2023-08-21T13:15:06;5.15;;;1.70;;
65691;SDS011;52411;52.716;6.696;2023-08-21T13:17:34;5.45;;;1.80;;
65691;SDS011;52411;52.716;6.696;2023-08-21T13:20:00;4.60;;;1.63;;
65691;SDS011;52411;52.716;6.696;2023-08-21T13:22:25;5.50;;;1.63;;
65691;SDS011;52411;52.716;6.696;2023-08-21T13:24:51;3.92;;;1.80;;
65691;SDS011;52411;52.716;6.696;2023-08-21T13:27:17;4.22;;;1.88;;
65691;SDS011;52411;52.716;6.696;2023-08-21T13:29:42;4.85;;;1.77;;
65691;SDS011;52411;52.716;6.696;2023-08-21T13:32:08;7.05;;;1.63;;
65691;SDS011;52411;52.716;6.696;2023-08-21T13:34:34;4.13;;;1.60;;
65691;SDS011;52411;52.716;6.696;2023-08-21T13:36:59;11.52;;;1.95;;
65691;SDS011;52411;52.716;6.696;2023-08-21T13:39:25;3.50;;;1.67;;
65691;SDS011;52411;52.716;6.696;2023-08-21T13:41:51;5.28;;;1.50;;
65691;SDS011;52411;52.716;6.696;2023-08-21T13:44:17;4.72;;;1.60;;
65691;SDS011;52411;52.716;6.696;2023-08-21T13:46:42;2.85;;;1.60;;
65691;SDS011;52411;52.716;6.696;2023-08-21T13:49:08;6.00;;;2.38;;
65691;SDS011;52411;52.716;6.696;2023-08-21T13:51:34;4.97;;;1.80;;
65691;SDS011;52411;52.716;6.696;2023-08-21T13:54:00;5.00;;;1.58;;
65691;SDS011;52411;52.716;6.696;2023-08-21T13:56:25;5.57;;;1.90;;
65691;SDS011;52411;52.716;6.696;2023-08-21T13:58:51;5.22;;;1.75;;
65691;SDS011;52411;52.716;6.696;2023-08-21T14:01:17;5.60;;;1.85;;
65691;SDS011;52411;52.716;6.696;2023-08-21T14:03:42;6.03;;;2.25;;
65691;SDS011;52411;52.716;6.696;2023-08-21T14:06:08;5.97;;;2.03;;
65691;SDS011;52411;52.716;6.696;2023-08-21T14:08:36;7.88;;;2.10;;
65691;SDS011;52411;52.716;6.696;2023-08-21T14:11:02;7.28;;;1.83;;
65691;SDS011;52411;52.716;6.696;2023-08-21T14:13:28;5.47;;;1.85;;
65691;SDS011;52411;52.716;6.696;2023-08-21T14:15:53;5.05;;;1.45;;
65691;SDS011;52411;52.716;6.696;2023-08-21T14:18:19;5.72;;;1.60;;
65691;SDS011;52411;52.716;6.696;2023-08-21T14:20:45;4.55;;;1.48;;
65691;SDS011;52411;52.716;6.696;2023-08-21T14:23:11;4.93;;;1.30;;
65691;SDS011;52411;52.716;6.696;2023-08-21T14:25:36;4.25;;;1.45;;
65691;SDS011;52411;52.716;6.696;2023-08-21T14:28:02;2.80;;;1.20;;
65691;SDS011;52411;52.716;6.696;2023-08-21T14:30:28;2.83;;;0.90;;
65691;SDS011;52411;52.716;6.696;2023-08-21T14:32:54;3.67;;;1.40;;
65691;SDS011;52411;52.716;6.696;2023-08-21T14:35:20;3.33;;;1.42;;
65691;SDS011;52411;52.716;6.696;2023-08-21T14:37:46;2.25;;;1.20;;
65691;SDS011;52411;52.716;6.696;2023-08-21T14:40:11;3.20;;;1.27;;
65691;SDS011;52411;52.716;6.696;2023-08-21T14:42:37;2.50;;;1.00;;
65691;SDS011;52411;52.716;6.696;2023-08-21T14:45:03;4.90;;;1.30;;
65691;SDS011;52411;52.716;6.696;2023-08-21T14:47:29;3.13;;;1.20;;
65691;SDS011;52411;52.716;6.696;2023-08-21T14:49:56;4.00;;;1.85;;
65691;SDS011;52411;52.716;6.696;2023-08-21T14:52:22;3.45;;;1.25;;
65691;SDS011;52411;52.716;6.696;2023-08-21T14:54:50;2.80;;;1.30;;
65691;SDS011;52411;52.716;6.696;2023-08-21T14:57:16;3.78;;;1.35;;
65691;SDS011;52411;52.716;6.696;2023-08-21T14:59:42;2.63;;;1.10;;
65691;SDS011;52411;52.716;6.696;2023-08-21T15:02:07;3.53;;;1.48;;
65691;SDS011;52411;52.716;6.696;2023-08-21T15:04:33;4.43;;;1.40;;
65691;SDS011;52411;52.716;6.696;2023-08-21T15:06:58;4.50;;;1.25;;
65691;SDS011;52411;52.716;6.696;2023-08-21T15:09:24;4.05;;;1.23;;
65691;SDS011;52411;52.716;6.696;2023-08-21T15:11:50;4.35;;;1.38;;
65691;SDS011;52411;52.716;6.696;2023-08-21T15:14:15;4.05;;;0.95;;
65691;SDS011;52411;52.716;6.696;2023-08-21T15:16:41;2.45;;;0.90;;
65691;SDS011;52411;52.716;6.696;2023-08-21T15:19:06;2.80;;;1.20;;
65691;SDS011;52411;52.716;6.696;2023-08-21T15:21:32;4.55;;;1.20;;
65691;SDS011;52411;52.716;6.696;2023-08-21T15:23:58;4.85;;;1.48;;